createdAt,value
2022-12-12T00:02:27.165Z,23.60
2022-12-12T00:05:01.455Z,22.48
2022-12-12T00:07:30.896Z,23.23
2022-12-12T00:10:00.679Z,23.23
2022-12-12T00:12:30.211Z,23.15
2022-12-12T00:14:59.654Z,23.20
2022-12-12T00:17:29.139Z,24.08
2022-12-12T00:20:01.192Z,23.38
2022-12-12T00:22:30.677Z,23.17
2022-12-12T00:25:00.145Z,23.52
2022-12-12T00:27:29.658Z,23.15
2022-12-12T00:29:59.145Z,23.92
2022-12-12T00:32:28.735Z,23.85
2022-12-12T00:35:00.779Z,23.23
2022-12-12T00:37:30.288Z,22.75
2022-12-12T00:39:59.753Z,22.98
2022-12-12T00:42:29.212Z,23.95
2022-12-12T00:44:58.787Z,22.73
2022-12-12T00:47:28.301Z,21.98
2022-12-12T00:49:57.792Z,22.02
2022-12-12T00:52:29.830Z,21.90
2022-12-12T00:55:20.123Z,21.33
2022-12-12T00:57:49.595Z,22.43
2022-12-12T01:00:20.064Z,22.33
2022-12-12T01:02:49.728Z,23.67
2022-12-12T01:05:19.363Z,23.45
2022-12-12T01:07:51.490Z,23.90
2022-12-12T01:10:21.032Z,24.75
2022-12-12T01:12:50.839Z,24.58
2022-12-12T01:15:20.524Z,25.13
2022-12-12T01:17:50.001Z,24.63
2022-12-12T01:20:21.099Z,25.42
2022-12-12T01:25:22.752Z,24.55
2022-12-12T01:27:52.281Z,25.42
2022-12-12T01:30:23.166Z,24.25
2022-12-12T01:32:52.896Z,24.60
2022-12-12T01:35:22.370Z,24.70
2022-12-12T01:37:54.920Z,24.85
2022-12-12T01:40:26.213Z,23.63
2022-12-12T01:42:55.786Z,23.08
2022-12-12T01:45:55.330Z,23.52
2022-12-12T01:48:25.793Z,23.77
2022-12-12T01:50:55.237Z,22.27
2022-12-12T01:53:27.432Z,23.25
2022-12-12T01:55:57.010Z,22.42
2022-12-12T01:58:26.517Z,22.75
2022-12-12T02:00:56.059Z,22.05
2022-12-12T02:03:25.602Z,22.48
2022-12-12T02:05:56.373Z,24.00
2022-12-12T02:08:28.527Z,24.08
2022-12-12T02:10:58.045Z,24.02
2022-12-12T02:13:28.913Z,24.55
2022-12-12T02:16:02.864Z,23.70
2022-12-12T02:18:34.382Z,23.90
2022-12-12T02:21:08.497Z,23.58
2022-12-12T02:24:07.964Z,23.33
2022-12-12T02:27:05.424Z,24.67
2022-12-12T02:30:14.150Z,23.58
2022-12-12T02:33:01.607Z,23.02
2022-12-12T02:35:35.456Z,24.00
2022-12-12T02:38:09.232Z,24.25
2022-12-12T02:40:41.373Z,24.63
2022-12-12T02:43:14.139Z,24.52
2022-12-12T02:45:45.106Z,24.92
2022-12-12T02:48:19.661Z,23.58
2022-12-12T02:50:50.279Z,23.73
2022-12-12T02:53:20.716Z,23.98
2022-12-12T02:55:50.286Z,24.98
2022-12-12T02:58:19.846Z,23.73
2022-12-12T03:00:53.372Z,24.83
2022-12-12T03:03:44.733Z,25.05
2022-12-12T03:06:39.358Z,25.27
2022-12-12T03:09:13.797Z,24.42
2022-12-12T03:11:48.440Z,25.35
2022-12-12T03:14:20.295Z,23.80
2022-12-12T03:16:51.629Z,23.73
2022-12-12T03:19:26.244Z,24.75
2022-12-12T03:21:56.918Z,23.77
2022-12-12T03:24:27.815Z,23.08
2022-12-12T03:26:59.069Z,23.65
2022-12-12T03:29:30.101Z,23.27
2022-12-12T03:34:34.280Z,23.08
2022-12-12T03:37:06.154Z,23.50
2022-12-12T03:39:37.013Z,24.27
2022-12-12T03:42:08.800Z,23.33
2022-12-12T03:44:41.618Z,23.67
2022-12-12T03:47:13.409Z,23.35
2022-12-12T03:49:47.181Z,23.02
2022-12-12T03:52:19.218Z,23.35
2022-12-12T03:54:50.149Z,22.85
2022-12-12T03:57:21.686Z,23.60
2022-12-12T03:59:53.386Z,22.83
2022-12-12T04:02:24.724Z,22.95
2022-12-12T04:04:59.237Z,23.40
2022-12-12T04:07:31.826Z,25.00
2022-12-12T04:10:13.783Z,24.75
2022-12-12T04:12:57.151Z,25.02
2022-12-12T04:15:47.288Z,24.10
2022-12-12T04:18:19.502Z,24.77
2022-12-12T04:21:07.796Z,22.38
2022-12-12T04:23:38.859Z,23.45
2022-12-12T04:28:57.115Z,23.15
2022-12-12T04:31:28.000Z,22.88
2022-12-12T04:33:59.598Z,23.35
2022-12-12T04:36:31.998Z,22.63
2022-12-12T04:39:01.489Z,22.55
2022-12-12T04:41:30.989Z,20.58
2022-12-12T04:44:00.486Z,21.50
2022-12-12T04:46:30.622Z,20.85
2022-12-12T04:49:01.714Z,19.90
2022-12-12T04:54:06.110Z,18.80
2022-12-12T04:56:35.677Z,19.27
2022-12-12T04:59:05.268Z,19.10
2022-12-12T05:01:37.834Z,18.10
2022-12-12T05:04:10.547Z,20.95
2022-12-12T05:06:45.697Z,19.85
2022-12-12T05:09:15.229Z,19.95
2022-12-12T05:11:44.888Z,19.95
2022-12-12T05:14:15.481Z,19.95
2022-12-12T05:16:46.622Z,19.13
2022-12-12T05:19:16.156Z,20.90
2022-12-12T05:21:49.196Z,20.83
2022-12-12T05:24:18.683Z,21.98
2022-12-12T05:26:48.245Z,20.63
2022-12-12T05:29:17.753Z,20.70
2022-12-12T05:31:47.261Z,18.98
2022-12-12T05:34:16.807Z,19.67
2022-12-12T05:36:48.945Z,18.73
2022-12-12T05:39:18.698Z,19.55
2022-12-12T05:41:48.227Z,20.83
2022-12-12T05:44:17.718Z,20.13
2022-12-12T05:46:47.233Z,20.42
2022-12-12T05:49:16.715Z,19.65
2022-12-12T05:51:48.849Z,20.05
2022-12-12T05:54:18.379Z,19.67
2022-12-12T05:56:47.872Z,19.23
2022-12-12T05:59:17.353Z,19.73
2022-12-12T06:01:46.871Z,19.95
2022-12-12T06:04:16.389Z,20.15
2022-12-12T06:06:48.579Z,19.77
2022-12-12T06:09:18.134Z,19.35
2022-12-12T06:11:47.619Z,19.60
2022-12-12T06:14:17.140Z,19.88
2022-12-12T06:16:46.631Z,19.10
2022-12-12T06:19:16.161Z,19.15
2022-12-12T06:21:48.477Z,18.67
2022-12-12T06:24:17.931Z,19.27
2022-12-12T06:26:47.383Z,18.48
2022-12-12T06:29:17.243Z,19.45
2022-12-12T06:31:46.781Z,17.92
2022-12-12T06:34:16.233Z,16.63
2022-12-12T06:36:48.621Z,17.90
2022-12-12T06:39:18.073Z,17.55
2022-12-12T06:41:47.598Z,17.67
2022-12-12T06:44:17.097Z,17.45
2022-12-12T06:46:46.635Z,16.98
2022-12-12T06:49:16.207Z,18.05
2022-12-12T06:51:48.893Z,17.05
2022-12-12T06:54:19.406Z,16.77
2022-12-12T06:56:49.506Z,17.38
2022-12-12T06:59:19.104Z,17.97
2022-12-12T07:01:48.643Z,17.90
2022-12-12T07:04:18.202Z,16.90
2022-12-12T07:06:50.251Z,17.05
2022-12-12T07:09:20.550Z,16.23
2022-12-12T07:11:50.060Z,16.52
2022-12-12T07:14:19.574Z,16.90
2022-12-12T07:16:49.023Z,16.42
2022-12-12T07:19:18.522Z,16.02
2022-12-12T07:21:50.640Z,16.58
2022-12-12T07:24:20.134Z,16.40
2022-12-12T07:26:49.668Z,16.70
2022-12-12T07:29:19.138Z,16.27
2022-12-12T07:31:48.578Z,16.85
2022-12-12T07:34:18.093Z,15.93
2022-12-12T07:36:50.190Z,15.60
2022-12-12T07:39:21.207Z,16.38
2022-12-12T07:44:19.996Z,15.45
2022-12-12T07:46:49.475Z,15.75
2022-12-12T07:49:19.011Z,15.48
2022-12-12T07:51:51.082Z,15.13
2022-12-12T07:54:20.670Z,15.75
2022-12-12T07:56:50.154Z,16.00
2022-12-12T07:59:19.772Z,16.33
2022-12-12T08:01:49.276Z,15.63
2022-12-12T08:04:19.087Z,16.35
2022-12-12T08:06:55.767Z,15.90
2022-12-12T08:09:29.199Z,16.08
2022-12-12T08:12:01.581Z,15.20
2022-12-12T08:14:31.095Z,16.27
2022-12-12T08:17:00.603Z,15.57
2022-12-12T08:19:30.103Z,15.25
2022-12-12T08:22:02.425Z,14.45
2022-12-12T08:24:31.907Z,13.88
2022-12-12T08:27:01.368Z,14.70
2022-12-12T08:29:30.851Z,14.52
2022-12-12T08:32:00.369Z,14.20
2022-12-12T08:34:29.858Z,13.75
2022-12-12T08:37:01.920Z,13.10
2022-12-12T08:39:31.444Z,14.27
2022-12-12T08:42:01.393Z,14.43
2022-12-12T08:44:30.919Z,13.95
2022-12-12T08:47:00.550Z,14.32
2022-12-12T08:49:30.043Z,14.57
2022-12-12T08:52:05.959Z,14.23
2022-12-12T08:54:35.645Z,13.55
2022-12-12T08:57:05.307Z,14.05
2022-12-12T08:59:34.952Z,13.73
2022-12-12T09:02:04.598Z,13.88
2022-12-12T09:04:34.165Z,13.57
2022-12-12T09:07:08.628Z,13.10
2022-12-12T09:09:38.413Z,12.98
2022-12-12T09:12:08.527Z,14.00
2022-12-12T09:14:38.140Z,13.37
2022-12-12T09:17:07.617Z,14.32
2022-12-12T09:19:37.341Z,14.20
2022-12-12T09:22:09.459Z,14.00
2022-12-12T09:24:38.931Z,13.82
2022-12-12T09:27:08.770Z,14.02
2022-12-12T09:29:38.314Z,14.38
2022-12-12T09:32:08.032Z,13.93
2022-12-12T09:34:37.549Z,13.88
2022-12-12T09:37:09.605Z,13.93
2022-12-12T09:39:39.040Z,13.43
2022-12-12T09:42:13.494Z,13.90
2022-12-12T09:44:43.140Z,13.85
2022-12-12T09:47:15.602Z,13.27
2022-12-12T09:49:48.369Z,13.13
2022-12-12T09:52:25.171Z,13.05
2022-12-12T09:54:57.195Z,13.60
2022-12-12T09:57:28.929Z,12.88
2022-12-12T10:00:00.177Z,13.50
2022-12-12T10:02:43.448Z,12.45
2022-12-12T10:05:21.642Z,12.70
2022-12-12T10:07:57.146Z,12.02
2022-12-12T10:10:28.436Z,12.30
2022-12-12T10:12:58.304Z,12.65
2022-12-12T10:15:32.307Z,12.50
2022-12-12T10:18:02.596Z,11.82
2022-12-12T10:20:33.184Z,15.95
2022-12-12T10:23:08.268Z,12.88
2022-12-12T10:25:42.633Z,13.73
2022-12-12T10:28:13.621Z,13.10
2022-12-12T10:30:59.960Z,11.43
2022-12-12T10:33:33.941Z,12.10
2022-12-12T10:36:07.296Z,11.73
2022-12-12T10:38:51.386Z,11.15
2022-12-12T10:41:23.495Z,10.75
2022-12-12T10:43:58.187Z,11.23
2022-12-12T10:46:28.654Z,12.77
2022-12-12T10:48:58.222Z,11.25
2022-12-12T10:51:27.826Z,11.48
2022-12-12T10:53:59.862Z,10.00
2022-12-12T10:56:30.062Z,12.40
2022-12-12T10:59:00.187Z,10.17
2022-12-12T11:02:00.429Z,10.20
2022-12-12T11:04:27.322Z,10.68
2022-12-12T11:06:57.998Z,15.65
2022-12-12T11:09:30.757Z,12.48
2022-12-12T11:12:00.843Z,12.10
2022-12-12T11:14:35.733Z,10.40
2022-12-12T11:17:05.297Z,10.73
2022-12-12T11:19:39.863Z,9.77
2022-12-12T11:22:09.355Z,9.80
2022-12-12T11:24:41.360Z,9.60
2022-12-12T11:27:10.803Z,10.15
2022-12-12T11:29:46.264Z,9.40
2022-12-12T11:32:16.359Z,9.43
2022-12-12T11:34:47.436Z,10.03
2022-12-12T11:39:51.937Z,9.93
2022-12-12T11:42:25.586Z,9.48
2022-12-12T11:45:03.365Z,9.48
2022-12-12T11:47:38.581Z,9.70
2022-12-12T11:50:19.802Z,9.85
2022-12-12T21:42:33.645Z,27.80
2022-12-12T21:45:03.075Z,27.80
2022-12-12T21:47:32.507Z,27.02
2022-12-12T21:50:01.914Z,28.58
2022-12-12T21:52:31.393Z,28.65
2022-12-12T21:55:00.831Z,28.00
2022-12-12T21:57:33.004Z,29.17
2022-12-12T22:00:02.445Z,28.17
2022-12-12T22:02:31.998Z,28.02
2022-12-12T22:05:01.558Z,28.55
2022-12-12T22:07:31.044Z,28.40
2022-12-12T22:10:11.255Z,28.00
2022-12-12T22:12:43.678Z,28.73
2022-12-12T22:15:27.319Z,29.33
2022-12-12T22:17:56.770Z,28.20
2022-12-12T22:20:26.208Z,28.15
2022-12-12T22:22:56.139Z,27.67
2022-12-12T22:25:25.673Z,27.00
2022-12-12T22:27:57.725Z,27.65
2022-12-12T22:30:27.190Z,27.25
2022-12-12T22:32:56.622Z,27.23
2022-12-12T22:35:26.683Z,27.27
2022-12-12T22:37:56.578Z,27.80
2022-12-12T22:40:26.072Z,28.20
2022-12-12T22:42:58.132Z,28.17
2022-12-12T22:45:27.646Z,27.17
2022-12-12T22:47:57.087Z,27.60
2022-12-12T22:50:26.562Z,27.08
2022-12-12T22:52:56.030Z,28.83
2022-12-12T22:55:26.259Z,27.17
2022-12-12T22:57:58.297Z,26.63
2022-12-12T23:00:27.754Z,26.70
2022-12-12T23:02:57.424Z,26.88
2022-12-12T23:05:26.925Z,26.00
2022-12-12T23:07:56.400Z,27.42
2022-12-12T23:10:25.991Z,26.73
2022-12-12T23:12:58.093Z,26.65
2022-12-12T23:15:27.553Z,25.25
2022-12-12T23:17:57.044Z,23.90
2022-12-12T23:20:26.525Z,24.27
2022-12-12T23:22:56.123Z,24.65
2022-12-12T23:25:25.639Z,23.23
2022-12-12T23:27:57.691Z,22.25
2022-12-12T23:30:27.156Z,21.73
2022-12-12T23:32:56.663Z,22.65
2022-12-12T23:35:26.249Z,24.33
2022-12-12T23:37:55.696Z,23.40
2022-12-12T23:40:25.173Z,24.40
2022-12-12T23:42:54.669Z,24.63
2022-12-12T23:45:26.809Z,25.70
2022-12-12T23:47:56.323Z,25.73
2022-12-12T23:50:25.781Z,26.13
2022-12-12T23:52:55.259Z,25.92
2022-12-12T23:55:24.710Z,26.17
2022-12-12T23:57:54.190Z,25.95
